sensor_id;sensor_type;location;lat;lon;timestamp;P1;durP1;ratioP1;P2;durP2;ratioP2
20073;SDS011;10197;54.282;10.078;2022-08-03T00:01:02;4.30;;;3.30;;
20073;SDS011;10197;54.282;10.078;2022-08-03T00:03:29;5.38;;;3.13;;
20073;SDS011;10197;54.282;10.078;2022-08-03T00:05:58;4.47;;;3.33;;
20073;SDS011;10197;54.282;10.078;2022-08-03T00:08:25;3.25;;;2.92;;
20073;SDS011;10197;54.282;10.078;2022-08-03T00:10:52;3.42;;;3.13;;
20073;SDS011;10197;54.282;10.078;2022-08-03T00:13:20;4.70;;;3.35;;
20073;SDS011;10197;54.282;10.078;2022-08-03T00:15:47;5.57;;;3.60;;
20073;SDS011;10197;54.282;10.078;2022-08-03T00:18:13;4.95;;;3.33;;
20073;SDS011;10197;54.282;10.078;2022-08-03T00:20:40;4.22;;;3.55;;
20073;SDS011;10197;54.282;10.078;2022-08-03T00:23:09;3.63;;;3.30;;
20073;SDS011;10197;54.282;10.078;2022-08-03T00:25:36;4.85;;;3.50;;
20073;SDS011;10197;54.282;10.078;2022-08-03T00:28:03;3.65;;;3.35;;
20073;SDS011;10197;54.282;10.078;2022-08-03T00:30:31;3.50;;;3.20;;
20073;SDS011;10197;54.282;10.078;2022-08-03T00:32:58;5.75;;;3.67;;
20073;SDS011;10197;54.282;10.078;2022-08-03T00:35:25;3.90;;;3.53;;
20073;SDS011;10197;54.282;10.078;2022-08-03T00:37:52;3.75;;;3.45;;
20073;SDS011;10197;54.282;10.078;2022-08-03T00:40:20;3.42;;;3.13;;
20073;SDS011;10197;54.282;10.078;2022-08-03T00:42:48;3.33;;;3.03;;
20073;SDS011;10197;54.282;10.078;2022-08-03T00:45:18;3.75;;;3.40;;
20073;SDS011;10197;54.282;10.078;2022-08-03T00:47:45;5.72;;;3.67;;
20073;SDS011;10197;54.282;10.078;2022-08-03T00:50:12;4.22;;;3.65;;
20073;SDS011;10197;54.282;10.078;2022-08-03T00:52:39;3.45;;;3.15;;
20073;SDS011;10197;54.282;10.078;2022-08-03T00:55:06;3.47;;;2.85;;
20073;SDS011;10197;54.282;10.078;2022-08-03T00:57:34;4.13;;;3.63;;
20073;SDS011;10197;54.282;10.078;2022-08-03T01:00:02;4.00;;;3.60;;
20073;SDS011;10197;54.282;10.078;2022-08-03T01:02:30;5.10;;;3.10;;
20073;SDS011;10197;54.282;10.078;2022-08-03T01:04:57;3.85;;;3.50;;
20073;SDS011;10197;54.282;10.078;2022-08-03T01:07:26;4.10;;;3.50;;
20073;SDS011;10197;54.282;10.078;2022-08-03T01:10:03;4.60;;;3.40;;
20073;SDS011;10197;54.282;10.078;2022-08-03T01:12:37;6.35;;;3.88;;
20073;SDS011;10197;54.282;10.078;2022-08-03T01:15:07;4.00;;;3.53;;
20073;SDS011;10197;54.282;10.078;2022-08-03T01:17:39;3.95;;;3.60;;
20073;SDS011;10197;54.282;10.078;2022-08-03T01:20:12;4.32;;;3.58;;
20073;SDS011;10197;54.282;10.078;2022-08-03T01:22:45;4.65;;;3.45;;
20073;SDS011;10197;54.282;10.078;2022-08-03T01:25:25;5.72;;;3.92;;
20073;SDS011;10197;54.282;10.078;2022-08-03T01:28:09;4.18;;;3.78;;
20073;SDS011;10197;54.282;10.078;2022-08-03T01:30:46;3.80;;;3.35;;
20073;SDS011;10197;54.282;10.078;2022-08-03T01:33:14;4.72;;;3.90;;
20073;SDS011;10197;54.282;10.078;2022-08-03T01:35:45;4.20;;;3.70;;
20073;SDS011;10197;54.282;10.078;2022-08-03T01:38:14;4.65;;;3.83;;
20073;SDS011;10197;54.282;10.078;2022-08-03T01:40:45;5.32;;;4.05;;
20073;SDS011;10197;54.282;10.078;2022-08-03T01:43:14;7.00;;;4.50;;
20073;SDS011;10197;54.282;10.078;2022-08-03T01:45:42;4.82;;;4.35;;
20073;SDS011;10197;54.282;10.078;2022-08-03T01:48:10;4.28;;;3.85;;
20073;SDS011;10197;54.282;10.078;2022-08-03T01:50:38;4.25;;;3.85;;
20073;SDS011;10197;54.282;10.078;2022-08-03T01:53:06;4.95;;;4.45;;
20073;SDS011;10197;54.282;10.078;2022-08-03T01:55:33;5.22;;;4.15;;
20073;SDS011;10197;54.282;10.078;2022-08-03T01:58:02;6.97;;;3.78;;
20073;SDS011;10197;54.282;10.078;2022-08-03T02:00:29;4.72;;;4.07;;
20073;SDS011;10197;54.282;10.078;2022-08-03T02:02:57;4.30;;;3.80;;
20073;SDS011;10197;54.282;10.078;2022-08-03T02:05:26;5.07;;;3.60;;
20073;SDS011;10197;54.282;10.078;2022-08-03T02:07:53;4.38;;;3.97;;
20073;SDS011;10197;54.282;10.078;2022-08-03T02:10:21;4.18;;;3.63;;
20073;SDS011;10197;54.282;10.078;2022-08-03T02:12:49;4.38;;;3.58;;
20073;SDS011;10197;54.282;10.078;2022-08-03T02:15:16;3.75;;;3.50;;
20073;SDS011;10197;54.282;10.078;2022-08-03T02:17:45;4.05;;;3.60;;
20073;SDS011;10197;54.282;10.078;2022-08-03T02:20:13;5.13;;;4.15;;
20073;SDS011;10197;54.282;10.078;2022-08-03T02:22:41;4.93;;;4.43;;
20073;SDS011;10197;54.282;10.078;2022-08-03T02:25:09;4.32;;;3.92;;
20073;SDS011;10197;54.282;10.078;2022-08-03T02:27:37;4.18;;;3.85;;
20073;SDS011;10197;54.282;10.078;2022-08-03T02:30:07;4.30;;;3.90;;
20073;SDS011;10197;54.282;10.078;2022-08-03T02:32:35;4.32;;;3.92;;
20073;SDS011;10197;54.282;10.078;2022-08-03T02:35:04;5.70;;;3.72;;
20073;SDS011;10197;54.282;10.078;2022-08-03T02:37:35;5.40;;;3.90;;
20073;SDS011;10197;54.282;10.078;2022-08-03T02:40:07;3.88;;;3.50;;
20073;SDS011;10197;54.282;10.078;2022-08-03T02:42:35;6.13;;;3.60;;
20073;SDS011;10197;54.282;10.078;2022-08-03T02:45:04;4.18;;;3.70;;
20073;SDS011;10197;54.282;10.078;2022-08-03T02:47:33;5.03;;;4.25;;
20073;SDS011;10197;54.282;10.078;2022-08-03T02:50:02;4.43;;;3.95;;
20073;SDS011;10197;54.282;10.078;2022-08-03T02:52:29;4.28;;;3.97;;
20073;SDS011;10197;54.282;10.078;2022-08-03T02:54:59;4.00;;;3.58;;
20073;SDS011;10197;54.282;10.078;2022-08-03T02:57:28;6.72;;;4.35;;
20073;SDS011;10197;54.282;10.078;2022-08-03T02:59:56;4.70;;;4.30;;
20073;SDS011;10197;54.282;10.078;2022-08-03T03:02:23;4.90;;;4.40;;
20073;SDS011;10197;54.282;10.078;2022-08-03T03:04:51;5.20;;;4.80;;
20073;SDS011;10197;54.282;10.078;2022-08-03T03:07:18;4.85;;;4.40;;
20073;SDS011;10197;54.282;10.078;2022-08-03T03:09:45;5.47;;;4.90;;
20073;SDS011;10197;54.282;10.078;2022-08-03T03:12:12;5.50;;;5.00;;
20073;SDS011;10197;54.282;10.078;2022-08-03T03:14:40;6.57;;;5.97;;
20073;SDS011;10197;54.282;10.078;2022-08-03T03:17:08;6.93;;;6.25;;
20073;SDS011;10197;54.282;10.078;2022-08-03T03:19:35;7.95;;;7.05;;
20073;SDS011;10197;54.282;10.078;2022-08-03T03:22:02;7.53;;;6.82;;
20073;SDS011;10197;54.282;10.078;2022-08-03T03:24:31;7.40;;;6.70;;
20073;SDS011;10197;54.282;10.078;2022-08-03T03:26:58;9.73;;;8.45;;
20073;SDS011;10197;54.282;10.078;2022-08-03T03:29:25;8.82;;;7.88;;
20073;SDS011;10197;54.282;10.078;2022-08-03T03:31:53;8.60;;;7.60;;
20073;SDS011;10197;54.282;10.078;2022-08-03T03:34:21;7.82;;;7.00;;
20073;SDS011;10197;54.282;10.078;2022-08-03T03:36:48;8.88;;;8.07;;
20073;SDS011;10197;54.282;10.078;2022-08-03T03:39:16;9.27;;;8.27;;
20073;SDS011;10197;54.282;10.078;2022-08-03T03:41:42;8.73;;;7.88;;
20073;SDS011;10197;54.282;10.078;2022-08-03T03:44:10;8.43;;;7.60;;
20073;SDS011;10197;54.282;10.078;2022-08-03T03:46:36;8.48;;;7.60;;
20073;SDS011;10197;54.282;10.078;2022-08-03T03:49:05;8.18;;;7.38;;
20073;SDS011;10197;54.282;10.078;2022-08-03T03:51:32;8.80;;;7.90;;
20073;SDS011;10197;54.282;10.078;2022-08-03T03:54:00;9.55;;;8.60;;
20073;SDS011;10197;54.282;10.078;2022-08-03T03:56:27;9.18;;;8.20;;
20073;SDS011;10197;54.282;10.078;2022-08-03T03:58:54;9.50;;;8.50;;
20073;SDS011;10197;54.282;10.078;2022-08-03T04:01:21;8.85;;;8.00;;
20073;SDS011;10197;54.282;10.078;2022-08-03T04:03:48;8.80;;;7.90;;
20073;SDS011;10197;54.282;10.078;2022-08-03T04:06:16;9.27;;;8.32;;
20073;SDS011;10197;54.282;10.078;2022-08-03T04:09:01;8.60;;;7.70;;
20073;SDS011;10197;54.282;10.078;2022-08-03T04:11:49;8.75;;;7.95;;
20073;SDS011;10197;54.282;10.078;2022-08-03T04:14:18;10.15;;;8.73;;
20073;SDS011;10197;54.282;10.078;2022-08-03T04:16:49;8.68;;;7.78;;
20073;SDS011;10197;54.282;10.078;2022-08-03T04:19:21;8.38;;;7.60;;
20073;SDS011;10197;54.282;10.078;2022-08-03T04:21:53;8.65;;;7.72;;
20073;SDS011;10197;54.282;10.078;2022-08-03T04:24:23;7.20;;;6.60;;
20073;SDS011;10197;54.282;10.078;2022-08-03T04:26:53;8.18;;;7.38;;
20073;SDS011;10197;54.282;10.078;2022-08-03T04:29:20;9.02;;;7.85;;
20073;SDS011;10197;54.282;10.078;2022-08-03T04:31:47;7.88;;;6.90;;
20073;SDS011;10197;54.282;10.078;2022-08-03T04:34:15;8.48;;;7.68;;
20073;SDS011;10197;54.282;10.078;2022-08-03T04:36:43;10.38;;;9.38;;
20073;SDS011;10197;54.282;10.078;2022-08-03T04:39:17;8.73;;;7.82;;
20073;SDS011;10197;54.282;10.078;2022-08-03T04:41:47;8.82;;;7.93;;
20073;SDS011;10197;54.282;10.078;2022-08-03T04:44:15;8.75;;;7.07;;
20073;SDS011;10197;54.282;10.078;2022-08-03T04:46:43;7.95;;;7.15;;
20073;SDS011;10197;54.282;10.078;2022-08-03T04:49:10;7.25;;;6.40;;
20073;SDS011;10197;54.282;10.078;2022-08-03T04:51:37;7.65;;;6.85;;
20073;SDS011;10197;54.282;10.078;2022-08-03T04:54:10;7.25;;;6.55;;
20073;SDS011;10197;54.282;10.078;2022-08-03T04:56:39;7.93;;;7.03;;
20073;SDS011;10197;54.282;10.078;2022-08-03T04:59:06;7.72;;;6.80;;
20073;SDS011;10197;54.282;10.078;2022-08-03T05:01:33;10.38;;;9.27;;
20073;SDS011;10197;54.282;10.078;2022-08-03T05:04:00;8.32;;;7.53;;
20073;SDS011;10197;54.282;10.078;2022-08-03T05:06:27;9.65;;;8.40;;
20073;SDS011;10197;54.282;10.078;2022-08-03T05:08:54;7.43;;;6.72;;
20073;SDS011;10197;54.282;10.078;2022-08-03T05:11:21;7.25;;;6.38;;
20073;SDS011;10197;54.282;10.078;2022-08-03T05:13:49;8.18;;;7.38;;
20073;SDS011;10197;54.282;10.078;2022-08-03T05:16:16;8.50;;;7.55;;
20073;SDS011;10197;54.282;10.078;2022-08-03T05:18:43;8.25;;;7.35;;
20073;SDS011;10197;54.282;10.078;2022-08-03T05:21:10;7.30;;;6.60;;
20073;SDS011;10197;54.282;10.078;2022-08-03T05:23:38;11.65;;;10.45;;
20073;SDS011;10197;54.282;10.078;2022-08-03T05:26:05;13.52;;;11.32;;
20073;SDS011;10197;54.282;10.078;2022-08-03T05:28:32;11.13;;;9.50;;
20073;SDS011;10197;54.282;10.078;2022-08-03T05:31:09;9.27;;;8.30;;
20073;SDS011;10197;54.282;10.078;2022-08-03T05:33:37;9.70;;;8.88;;
20073;SDS011;10197;54.282;10.078;2022-08-03T05:36:05;9.85;;;7.75;;
20073;SDS011;10197;54.282;10.078;2022-08-03T05:38:32;11.30;;;8.80;;
20073;SDS011;10197;54.282;10.078;2022-08-03T05:40:59;8.13;;;7.43;;
20073;SDS011;10197;54.282;10.078;2022-08-03T05:43:26;10.80;;;8.20;;
20073;SDS011;10197;54.282;10.078;2022-08-03T05:45:53;8.70;;;6.97;;
20073;SDS011;10197;54.282;10.078;2022-08-03T05:48:21;7.55;;;6.85;;
20073;SDS011;10197;54.282;10.078;2022-08-03T05:50:48;10.45;;;8.65;;
20073;SDS011;10197;54.282;10.078;2022-08-03T05:53:15;8.88;;;7.97;;
20073;SDS011;10197;54.282;10.078;2022-08-03T05:55:42;7.88;;;7.13;;
20073;SDS011;10197;54.282;10.078;2022-08-03T05:58:14;8.10;;;7.30;;
20073;SDS011;10197;54.282;10.078;2022-08-03T06:00:40;8.60;;;6.80;;
20073;SDS011;10197;54.282;10.078;2022-08-03T06:03:07;6.90;;;5.55;;
20073;SDS011;10197;54.282;10.078;2022-08-03T06:05:35;9.68;;;7.25;;
20073;SDS011;10197;54.282;10.078;2022-08-03T06:08:03;7.93;;;7.05;;
20073;SDS011;10197;54.282;10.078;2022-08-03T06:10:30;8.98;;;6.30;;
20073;SDS011;10197;54.282;10.078;2022-08-03T06:12:57;15.63;;;7.35;;
20073;SDS011;10197;54.282;10.078;2022-08-03T06:15:24;11.27;;;6.50;;
20073;SDS011;10197;54.282;10.078;2022-08-03T06:17:51;10.52;;;6.15;;
20073;SDS011;10197;54.282;10.078;2022-08-03T06:20:19;8.07;;;5.82;;
20073;SDS011;10197;54.282;10.078;2022-08-03T06:22:47;8.07;;;5.70;;
20073;SDS011;10197;54.282;10.078;2022-08-03T06:25:14;9.13;;;6.38;;
20073;SDS011;10197;54.282;10.078;2022-08-03T06:27:42;8.35;;;5.38;;
20073;SDS011;10197;54.282;10.078;2022-08-03T06:30:09;7.30;;;4.80;;
20073;SDS011;10197;54.282;10.078;2022-08-03T06:32:37;9.38;;;5.60;;
20073;SDS011;10197;54.282;10.078;2022-08-03T06:35:04;10.95;;;4.82;;
20073;SDS011;10197;54.282;10.078;2022-08-03T06:37:31;7.50;;;4.97;;
20073;SDS011;10197;54.282;10.078;2022-08-03T06:39:59;7.18;;;4.72;;
20073;SDS011;10197;54.282;10.078;2022-08-03T06:42:26;9.43;;;4.47;;
20073;SDS011;10197;54.282;10.078;2022-08-03T06:44:52;6.40;;;3.70;;
20073;SDS011;10197;54.282;10.078;2022-08-03T06:47:19;5.43;;;3.58;;
20073;SDS011;10197;54.282;10.078;2022-08-03T06:49:46;7.43;;;3.88;;
20073;SDS011;10197;54.282;10.078;2022-08-03T06:52:13;4.75;;;4.20;;
20073;SDS011;10197;54.282;10.078;2022-08-03T06:54:40;10.38;;;4.30;;
20073;SDS011;10197;54.282;10.078;2022-08-03T06:57:08;9.15;;;3.55;;
20073;SDS011;10197;54.282;10.078;2022-08-03T06:59:35;5.90;;;4.22;;
20073;SDS011;10197;54.282;10.078;2022-08-03T07:02:02;6.85;;;4.30;;
20073;SDS011;10197;54.282;10.078;2022-08-03T07:04:29;6.75;;;3.90;;
20073;SDS011;10197;54.282;10.078;2022-08-03T07:06:56;3.70;;;3.10;;
20073;SDS011;10197;54.282;10.078;2022-08-03T07:09:29;4.53;;;3.45;;
20073;SDS011;10197;54.282;10.078;2022-08-03T07:11:56;6.38;;;3.25;;
20073;SDS011;10197;54.282;10.078;2022-08-03T07:14:24;5.78;;;3.25;;
20073;SDS011;10197;54.282;10.078;2022-08-03T07:16:51;6.35;;;3.70;;
20073;SDS011;10197;54.282;10.078;2022-08-03T07:19:18;7.93;;;4.28;;
20073;SDS011;10197;54.282;10.078;2022-08-03T07:21:45;12.00;;;4.05;;
20073;SDS011;10197;54.282;10.078;2022-08-03T07:24:12;10.13;;;3.55;;
20073;SDS011;10197;54.282;10.078;2022-08-03T07:26:39;8.93;;;3.63;;
20073;SDS011;10197;54.282;10.078;2022-08-03T07:29:05;7.43;;;3.40;;
20073;SDS011;10197;54.282;10.078;2022-08-03T07:31:34;8.00;;;3.75;;
20073;SDS011;10197;54.282;10.078;2022-08-03T07:34:01;7.15;;;3.50;;
20073;SDS011;10197;54.282;10.078;2022-08-03T07:36:27;9.48;;;3.80;;
20073;SDS011;10197;54.282;10.078;2022-08-03T07:38:54;5.93;;;3.30;;
20073;SDS011;10197;54.282;10.078;2022-08-03T07:41:22;5.03;;;3.30;;
20073;SDS011;10197;54.282;10.078;2022-08-03T07:43:49;6.68;;;4.22;;
20073;SDS011;10197;54.282;10.078;2022-08-03T07:46:15;8.85;;;3.60;;
20073;SDS011;10197;54.282;10.078;2022-08-03T07:48:44;4.43;;;2.70;;
20073;SDS011;10197;54.282;10.078;2022-08-03T07:51:11;6.82;;;3.10;;
20073;SDS011;10197;54.282;10.078;2022-08-03T07:53:37;7.30;;;3.30;;
20073;SDS011;10197;54.282;10.078;2022-08-03T07:56:04;5.60;;;3.90;;
20073;SDS011;10197;54.282;10.078;2022-08-03T07:58:31;6.85;;;2.97;;
20073;SDS011;10197;54.282;10.078;2022-08-03T08:00:58;6.15;;;2.90;;
20073;SDS011;10197;54.282;10.078;2022-08-03T08:03:24;5.03;;;2.95;;
20073;SDS011;10197;54.282;10.078;2022-08-03T08:05:53;7.20;;;2.95;;
20073;SDS011;10197;54.282;10.078;2022-08-03T08:08:20;4.78;;;3.10;;
20073;SDS011;10197;54.282;10.078;2022-08-03T08:10:47;6.65;;;3.38;;
20073;SDS011;10197;54.282;10.078;2022-08-03T08:13:13;7.80;;;3.28;;
20073;SDS011;10197;54.282;10.078;2022-08-03T08:15:40;6.38;;;3.67;;
20073;SDS011;10197;54.282;10.078;2022-08-03T08:18:07;5.47;;;3.78;;
20073;SDS011;10197;54.282;10.078;2022-08-03T08:20:34;8.23;;;3.20;;
20073;SDS011;10197;54.282;10.078;2022-08-03T08:23:05;7.25;;;3.63;;
20073;SDS011;10197;54.282;10.078;2022-08-03T08:25:32;6.07;;;3.58;;
20073;SDS011;10197;54.282;10.078;2022-08-03T08:27:59;6.00;;;3.50;;
20073;SDS011;10197;54.282;10.078;2022-08-03T08:30:29;6.20;;;3.40;;
20073;SDS011;10197;54.282;10.078;2022-08-03T08:32:56;4.82;;;2.90;;
20073;SDS011;10197;54.282;10.078;2022-08-03T08:35:23;7.60;;;3.28;;
20073;SDS011;10197;54.282;10.078;2022-08-03T08:37:50;8.57;;;3.28;;
20073;SDS011;10197;54.282;10.078;2022-08-03T08:40:22;8.70;;;3.15;;
20073;SDS011;10197;54.282;10.078;2022-08-03T08:42:49;5.18;;;3.40;;
20073;SDS011;10197;54.282;10.078;2022-08-03T08:45:19;4.43;;;2.88;;
20073;SDS011;10197;54.282;10.078;2022-08-03T08:47:46;8.82;;;3.42;;
20073;SDS011;10197;54.282;10.078;2022-08-03T08:50:16;6.30;;;3.15;;
20073;SDS011;10197;54.282;10.078;2022-08-03T08:52:45;6.95;;;3.17;;
20073;SDS011;10197;54.282;10.078;2022-08-03T08:55:14;5.95;;;2.60;;
20073;SDS011;10197;54.282;10.078;2022-08-03T08:57:48;7.68;;;2.80;;
20073;SDS011;10197;54.282;10.078;2022-08-03T09:00:16;5.57;;;3.50;;
20073;SDS011;10197;54.282;10.078;2022-08-03T09:02:44;6.13;;;2.83;;
20073;SDS011;10197;54.282;10.078;2022-08-03T09:05:11;5.32;;;2.83;;
20073;SDS011;10197;54.282;10.078;2022-08-03T09:07:39;6.43;;;2.97;;
20073;SDS011;10197;54.282;10.078;2022-08-03T09:10:06;5.25;;;3.33;;
20073;SDS011;10197;54.282;10.078;2022-08-03T09:12:37;4.05;;;2.60;;
20073;SDS011;10197;54.282;10.078;2022-08-03T09:15:15;4.68;;;2.70;;
20073;SDS011;10197;54.282;10.078;2022-08-03T09:17:45;5.88;;;3.03;;
20073;SDS011;10197;54.282;10.078;2022-08-03T09:20:12;6.03;;;2.80;;
20073;SDS011;10197;54.282;10.078;2022-08-03T09:22:50;17.92;;;3.08;;
20073;SDS011;10197;54.282;10.078;2022-08-03T09:25:18;11.30;;;2.92;;
20073;SDS011;10197;54.282;10.078;2022-08-03T09:27:47;5.63;;;2.65;;
20073;SDS011;10197;54.282;10.078;2022-08-03T09:30:15;7.18;;;2.83;;
20073;SDS011;10197;54.282;10.078;2022-08-03T09:32:43;6.65;;;2.60;;
20073;SDS011;10197;54.282;10.078;2022-08-03T09:35:11;4.63;;;2.65;;
20073;SDS011;10197;54.282;10.078;2022-08-03T09:37:38;8.65;;;2.70;;
20073;SDS011;10197;54.282;10.078;2022-08-03T09:40:06;10.85;;;3.03;;
20073;SDS011;10197;54.282;10.078;2022-08-03T09:42:33;9.23;;;3.40;;
20073;SDS011;10197;54.282;10.078;2022-08-03T09:45:04;5.85;;;2.90;;
20073;SDS011;10197;54.282;10.078;2022-08-03T09:47:32;9.40;;;2.75;;
20073;SDS011;10197;54.282;10.078;2022-08-03T09:50:01;5.82;;;2.55;;
20073;SDS011;10197;54.282;10.078;2022-08-03T09:52:29;7.80;;;2.83;;
20073;SDS011;10197;54.282;10.078;2022-08-03T09:54:57;6.93;;;2.58;;
20073;SDS011;10197;54.282;10.078;2022-08-03T09:57:26;7.95;;;3.08;;
20073;SDS011;10197;54.282;10.078;2022-08-03T10:00:04;5.95;;;2.70;;
20073;SDS011;10197;54.282;10.078;2022-08-03T10:02:40;6.53;;;2.78;;
20073;SDS011;10197;54.282;10.078;2022-08-03T10:05:08;5.40;;;2.85;;
20073;SDS011;10197;54.282;10.078;2022-08-03T10:07:42;7.93;;;2.53;;
20073;SDS011;10197;54.282;10.078;2022-08-03T10:10:09;6.32;;;2.70;;
20073;SDS011;10197;54.282;10.078;2022-08-03T10:12:37;5.35;;;2.60;;
20073;SDS011;10197;54.282;10.078;2022-08-03T10:15:06;7.80;;;2.47;;
20073;SDS011;10197;54.282;10.078;2022-08-03T10:17:33;7.22;;;2.40;;
20073;SDS011;10197;54.282;10.078;2022-08-03T10:20:00;7.57;;;2.50;;
20073;SDS011;10197;54.282;10.078;2022-08-03T10:22:28;7.22;;;2.70;;
20073;SDS011;10197;54.282;10.078;2022-08-03T10:24:59;6.00;;;2.13;;
20073;SDS011;10197;54.282;10.078;2022-08-03T10:27:30;7.57;;;2.50;;
20073;SDS011;10197;54.282;10.078;2022-08-03T10:29:59;7.45;;;2.42;;
20073;SDS011;10197;54.282;10.078;2022-08-03T10:32:31;9.20;;;2.50;;
20073;SDS011;10197;54.282;10.078;2022-08-03T10:35:02;5.25;;;2.53;;
20073;SDS011;10197;54.282;10.078;2022-08-03T10:37:31;5.25;;;2.10;;
20073;SDS011;10197;54.282;10.078;2022-08-03T10:40:00;5.72;;;2.20;;
20073;SDS011;10197;54.282;10.078;2022-08-03T10:42:28;8.30;;;2.63;;
20073;SDS011;10197;54.282;10.078;2022-08-03T10:44:59;4.43;;;2.30;;
20073;SDS011;10197;54.282;10.078;2022-08-03T10:47:30;5.85;;;2.22;;
20073;SDS011;10197;54.282;10.078;2022-08-03T10:49:58;3.40;;;2.20;;
20073;SDS011;10197;54.282;10.078;2022-08-03T10:52:26;5.85;;;2.58;;
20073;SDS011;10197;54.282;10.078;2022-08-03T10:54:53;5.50;;;1.92;;
20073;SDS011;10197;54.282;10.078;2022-08-03T10:57:44;5.03;;;2.30;;
20073;SDS011;10197;54.282;10.078;2022-08-03T11:00:11;4.75;;;2.30;;
20073;SDS011;10197;54.282;10.078;2022-08-03T11:05:37;7.68;;;2.65;;
20073;SDS011;10197;54.282;10.078;2022-08-03T11:10:56;6.32;;;2.10;;
20073;SDS011;10197;54.282;10.078;2022-08-03T11:13:25;6.90;;;2.40;;
20073;SDS011;10197;54.282;10.078;2022-08-03T11:15:56;5.35;;;1.90;;
20073;SDS011;10197;54.282;10.078;2022-08-03T11:18:25;9.65;;;2.40;;
20073;SDS011;10197;54.282;10.078;2022-08-03T11:20:52;9.05;;;2.40;;
20073;SDS011;10197;54.282;10.078;2022-08-03T11:23:40;8.80;;;2.65;;
20073;SDS011;10197;54.282;10.078;2022-08-03T11:26:09;7.05;;;2.15;;
20073;SDS011;10197;54.282;10.078;2022-08-03T11:28:42;8.88;;;2.92;;
20073;SDS011;10197;54.282;10.078;2022-08-03T11:34:15;9.48;;;2.97;;
20073;SDS011;10197;54.282;10.078;2022-08-03T11:39:48;10.35;;;2.95;;
20073;SDS011;10197;54.282;10.078;2022-08-03T11:42:42;11.68;;;3.30;;
20073;SDS011;10197;54.282;10.078;2022-08-03T11:45:12;10.05;;;3.83;;
20073;SDS011;10197;54.282;10.078;2022-08-03T11:47:39;15.30;;;3.42;;
20073;SDS011;10197;54.282;10.078;2022-08-03T11:50:09;10.60;;;3.42;;
20073;SDS011;10197;54.282;10.078;2022-08-03T11:52:40;10.15;;;3.47;;
20073;SDS011;10197;54.282;10.078;2022-08-03T11:55:07;13.02;;;3.60;;
20073;SDS011;10197;54.282;10.078;2022-08-03T11:57:35;14.00;;;3.03;;
20073;SDS011;10197;54.282;10.078;2022-08-03T12:02:56;11.75;;;4.03;;
20073;SDS011;10197;54.282;10.078;2022-08-03T12:05:38;13.40;;;3.17;;
20073;SDS011;10197;54.282;10.078;2022-08-03T12:08:10;20.23;;;3.50;;
20073;SDS011;10197;54.282;10.078;2022-08-03T12:10:38;15.98;;;4.97;;
20073;SDS011;10197;54.282;10.078;2022-08-03T12:13:06;16.70;;;3.63;;
20073;SDS011;10197;54.282;10.078;2022-08-03T12:15:37;20.40;;;3.65;;
20073;SDS011;10197;54.282;10.078;2022-08-03T12:18:12;10.10;;;3.17;;
20073;SDS011;10197;54.282;10.078;2022-08-03T12:20:45;14.88;;;3.13;;
20073;SDS011;10197;54.282;10.078;2022-08-03T12:23:12;13.02;;;3.30;;
20073;SDS011;10197;54.282;10.078;2022-08-03T12:25:41;17.85;;;3.53;;
20073;SDS011;10197;54.282;10.078;2022-08-03T12:28:24;16.42;;;3.70;;
20073;SDS011;10197;54.282;10.078;2022-08-03T12:30:51;9.65;;;3.55;;
20073;SDS011;10197;54.282;10.078;2022-08-03T12:33:20;11.27;;;3.38;;
20073;SDS011;10197;54.282;10.078;2022-08-03T12:35:49;17.38;;;3.72;;
20073;SDS011;10197;54.282;10.078;2022-08-03T12:38:21;13.90;;;3.88;;
20073;SDS011;10197;54.282;10.078;2022-08-03T12:40:55;11.98;;;3.30;;
20073;SDS011;10197;54.282;10.078;2022-08-03T12:43:24;11.35;;;3.00;;
20073;SDS011;10197;54.282;10.078;2022-08-03T12:45:51;11.48;;;3.35;;
20073;SDS011;10197;54.282;10.078;2022-08-03T12:48:21;12.80;;;3.28;;
20073;SDS011;10197;54.282;10.078;2022-08-03T12:50:48;10.52;;;3.95;;
20073;SDS011;10197;54.282;10.078;2022-08-03T12:53:16;11.75;;;3.83;;
20073;SDS011;10197;54.282;10.078;2022-08-03T12:55:59;11.57;;;3.20;;
20073;SDS011;10197;54.282;10.078;2022-08-03T12:58:29;14.02;;;3.03;;
20073;SDS011;10197;54.282;10.078;2022-08-03T13:00:57;15.43;;;3.72;;
20073;SDS011;10197;54.282;10.078;2022-08-03T13:03:24;12.35;;;3.58;;
20073;SDS011;10197;54.282;10.078;2022-08-03T13:05:51;11.20;;;3.08;;
20073;SDS011;10197;54.282;10.078;2022-08-03T13:08:18;11.75;;;3.10;;
20073;SDS011;10197;54.282;10.078;2022-08-03T13:10:46;12.90;;;3.63;;
20073;SDS011;10197;54.282;10.078;2022-08-03T13:13:13;10.52;;;2.88;;
20073;SDS011;10197;54.282;10.078;2022-08-03T13:15:42;14.52;;;3.17;;
20073;SDS011;10197;54.282;10.078;2022-08-03T13:18:09;13.73;;;3.28;;
20073;SDS011;10197;54.282;10.078;2022-08-03T13:20:36;14.07;;;3.42;;
20073;SDS011;10197;54.282;10.078;2022-08-03T13:23:03;9.65;;;3.35;;
20073;SDS011;10197;54.282;10.078;2022-08-03T13:25:30;12.40;;;3.40;;
20073;SDS011;10197;54.282;10.078;2022-08-03T13:27:57;14.45;;;3.55;;
20073;SDS011;10197;54.282;10.078;2022-08-03T13:30:24;20.08;;;3.40;;
20073;SDS011;10197;54.282;10.078;2022-08-03T13:32:52;14.40;;;3.38;;
20073;SDS011;10197;54.282;10.078;2022-08-03T13:35:21;12.70;;;3.58;;
20073;SDS011;10197;54.282;10.078;2022-08-03T13:37:48;11.50;;;3.30;;
20073;SDS011;10197;54.282;10.078;2022-08-03T13:40:15;14.02;;;3.22;;
20073;SDS011;10197;54.282;10.078;2022-08-03T13:42:42;10.68;;;3.08;;
20073;SDS011;10197;54.282;10.078;2022-08-03T13:45:09;14.20;;;2.88;;
20073;SDS011;10197;54.282;10.078;2022-08-03T13:47:36;12.43;;;3.03;;
20073;SDS011;10197;54.282;10.078;2022-08-03T13:50:10;10.63;;;3.10;;
20073;SDS011;10197;54.282;10.078;2022-08-03T13:52:37;11.30;;;2.60;;
20073;SDS011;10197;54.282;10.078;2022-08-03T13:55:04;8.27;;;2.92;;
20073;SDS011;10197;54.282;10.078;2022-08-03T13:57:32;11.10;;;3.63;;
20073;SDS011;10197;54.282;10.078;2022-08-03T13:59:59;9.82;;;2.53;;
20073;SDS011;10197;54.282;10.078;2022-08-03T14:02:26;9.98;;;2.70;;
20073;SDS011;10197;54.282;10.078;2022-08-03T14:04:53;9.45;;;2.47;;
20073;SDS011;10197;54.282;10.078;2022-08-03T14:07:21;13.25;;;2.80;;
20073;SDS011;10197;54.282;10.078;2022-08-03T14:09:48;8.52;;;2.60;;
20073;SDS011;10197;54.282;10.078;2022-08-03T14:12:15;10.95;;;2.45;;
20073;SDS011;10197;54.282;10.078;2022-08-03T14:14:42;9.50;;;2.60;;
20073;SDS011;10197;54.282;10.078;2022-08-03T14:17:09;11.68;;;2.92;;
20073;SDS011;10197;54.282;10.078;2022-08-03T14:19:36;8.07;;;2.60;;
20073;SDS011;10197;54.282;10.078;2022-08-03T14:22:02;13.13;;;2.50;;
20073;SDS011;10197;54.282;10.078;2022-08-03T14:24:31;10.18;;;2.20;;
20073;SDS011;10197;54.282;10.078;2022-08-03T14:26:58;8.23;;;2.50;;
20073;SDS011;10197;54.282;10.078;2022-08-03T14:29:24;7.70;;;2.10;;
20073;SDS011;10197;54.282;10.078;2022-08-03T14:31:51;8.68;;;2.28;;
20073;SDS011;10197;54.282;10.078;2022-08-03T14:34:21;8.23;;;2.00;;
20073;SDS011;10197;54.282;10.078;2022-08-03T14:36:48;6.80;;;2.30;;
20073;SDS011;10197;54.282;10.078;2022-08-03T14:39:15;8.38;;;2.53;;
20073;SDS011;10197;54.282;10.078;2022-08-03T14:41:43;7.35;;;2.20;;
20073;SDS011;10197;54.282;10.078;2022-08-03T14:44:10;10.52;;;2.83;;
20073;SDS011;10197;54.282;10.078;2022-08-03T14:46:37;9.82;;;2.13;;
20073;SDS011;10197;54.282;10.078;2022-08-03T14:49:03;9.68;;;2.60;;
20073;SDS011;10197;54.282;10.078;2022-08-03T14:51:30;9.25;;;2.55;;
20073;SDS011;10197;54.282;10.078;2022-08-03T14:53:57;8.52;;;2.75;;